Time;durP1;ratioP1;P1;durP2;ratioP2;P2;SDS_P1;SDS_P2;PMS_P1;PMS_P2;Temp;Humidity;BMP_temperature;BMP_pressure;BME280_temperature;BME280_humidity;BME280_pressure;Samples;Min_cycle;Max_cycle;Signal;HPM_P1;HPM_P2
2021/04/28 00:03:13;;;;;;;13.90;9.17;;;;;;;2.10;45.38;99376.27;512532;1097;153858;-57
2021/04/28 00:13:18;;;;;;;13.47;9.27;;;;;;;1.99;45.33;99377.50;513287;1101;115625;-56
2021/04/28 00:23:23;;;;;;;12.93;7.47;;;;;;;1.92;46.28;99371.67;513893;1096;114943;-56
2021/04/28 00:33:27;;;;;;;14.50;7.97;;;;;;;1.90;46.24;99363.94;514485;1101;114136;-56
2021/04/28 00:43:32;;;;;;;10.70;9.05;;;;;;;1.86;46.64;99377.89;515190;1097;115560;-55
2021/04/28 00:53:37;;;;;;;10.47;7.70;;;;;;;1.84;46.45;99363.29;517412;1101;115736;-56
2021/04/28 01:03:42;;;;;;;12.23;8.80;;;;;;;1.82;46.29;99359.02;514960;1100;114572;-53
2021/04/28 01:13:46;;;;;;;13.10;8.30;;;;;;;1.70;46.89;99353.39;516804;1101;115332;-54
2021/04/28 01:23:51;;;;;;;14.60;10.17;;;;;;;1.61;47.31;99346.73;515771;1096;115862;-55
2021/04/28 01:34:02;;;;;;;14.80;9.27;;;;;;;1.53;47.75;99334.91;513250;1101;115597;-54
2021/04/28 01:44:08;;;;;;;12.37;9.07;;;;;;;1.39;47.62;99329.31;513656;1097;115521;-55
2021/04/28 01:54:18;;;;;;;12.13;8.97;;;;;;;1.28;48.28;99329.62;513316;1101;117022;-55
2021/04/28 02:04:24;;;;;;;14.70;9.57;;;;;;;1.19;48.72;99327.30;513963;1101;115346;-58
2021/04/28 02:14:31;;;;;;;15.20;9.33;;;;;;;1.04;49.35;99311.35;512529;1101;115610;-55
2021/04/28 02:24:35;;;;;;;16.30;8.63;;;;;;;0.96;49.72;99303.83;513433;1096;114904;-56
2021/04/28 02:34:40;;;;;;;11.97;8.50;;;;;;;0.86;49.48;99304.98;512397;1104;115474;-56
2021/04/28 02:44:48;;;;;;;14.20;9.07;;;;;;;0.81;49.48;99306.86;512382;1096;115594;-54
2021/04/28 02:54:53;;;;;;;11.90;8.57;;;;;;;0.77;50.43;99295.76;513077;1096;115546;-57
2021/04/28 03:04:58;;;;;;;12.97;9.33;;;;;;;0.74;50.17;99300.99;513353;1101;115555;-52
2021/04/28 03:15:03;;;;;;;15.93;9.67;;;;;;;0.71;50.59;99313.18;512262;1101;115693;-54
2021/04/28 03:25:11;;;;;;;12.70;8.80;;;;;;;0.73;50.55;99303.64;513359;1096;115109;-56
2021/04/28 03:35:16;;;;;;;11.03;8.47;;;;;;;0.77;50.33;99297.48;511978;1104;115041;-56
2021/04/28 03:45:21;;;;;;;14.35;9.00;;;;;;;0.98;50.79;99308.94;511723;1104;115061;-56
2021/04/28 03:55:25;;;;;;;14.67;9.73;;;;;;;1.13;50.52;99304.22;513130;1097;115579;-57
2021/04/28 04:05:30;;;;;;;14.90;9.30;;;;;;;1.33;50.34;99312.23;512882;1097;115720;-56
2021/04/28 04:15:35;;;;;;;16.97;9.63;;;;;;;1.57;50.12;99314.09;512876;1101;115048;-54
2021/04/28 04:25:39;;;;;;;16.40;10.40;;;;;;;1.84;49.34;99325.31;517580;1101;115308;-57
2021/04/28 04:35:44;;;;;;;15.00;10.50;;;;;;;2.20;48.77;99311.20;515717;1097;115578;-57
2021/04/28 04:45:49;;;;;;;14.37;8.73;;;;;;;2.62;48.43;99304.57;513820;1097;116213;-57
2021/04/28 04:55:53;;;;;;;14.97;9.00;;;;;;;3.16;47.63;99314.70;513708;1101;115059;-56
2021/04/28 05:05:58;;;;;;;13.37;9.67;;;;;;;12.96;40.72;99292.52;512562;1101;115784;-58
2021/04/28 05:16:03;;;;;;;11.60;8.57;;;;;;;20.26;32.13;99281.30;513021;1097;115436;-58
2021/04/28 05:26:08;;;;;;;9.83;8.20;;;;;;;23.09;26.01;99273.77;513700;1101;116356;-60
2021/04/28 05:36:12;;;;;;;12.30;8.43;;;;;;;25.67;22.52;99261.02;512528;1096;115366;-58
2021/04/28 05:46:17;;;;;;;9.65;8.65;;;;;;;27.57;19.39;99254.92;513943;1101;115472;-59
2021/04/28 05:56:22;;;;;;;8.53;7.63;;;;;;;27.72;18.98;99257.30;513039;1101;115751;-57
2021/04/28 06:06:27;;;;;;;9.43;7.35;;;;;;;30.32;17.36;99252.53;513286;1101;115605;-58
2021/04/28 06:16:32;;;;;;;8.93;7.88;;;;;;;31.64;15.85;99263.77;512598;1096;115038;-57
2021/04/28 06:26:39;;;;;;;7.05;6.35;;;;;;;33.02;14.43;99248.86;513019;1101;115735;-58
2021/04/28 06:36:44;;;;;;;7.95;7.15;;;;;;;34.45;13.35;99260.33;512768;1096;118441;-59
2021/04/28 06:46:49;;;;;;;7.05;6.35;;;;;;;35.09;12.69;99243.13;512857;1101;115862;-58
2021/04/28 06:56:53;;;;;;;10.53;7.00;;;;;;;36.17;11.90;99248.61;512596;1101;115605;-58
2021/04/28 07:06:59;;;;;;;8.78;6.95;;;;;;;36.78;11.35;99236.89;513798;1097;115280;-59
2021/04/28 07:17:03;;;;;;;7.00;6.20;;;;;;;38.41;11.07;99231.44;495495;1104;20001811;-61
2021/04/28 07:27:08;;;;;;;7.10;6.00;;;;;;;38.14;9.67;99224.61;512661;1101;117048;-60
2021/04/28 07:37:14;;;;;;;5.98;5.38;;;;;;;36.95;10.26;99225.58;513354;1097;114916;-58
2021/04/28 07:47:18;;;;;;;5.95;5.40;;;;;;;36.15;9.54;99225.38;512390;1104;115430;-59
2021/04/28 07:57:43;;;;;;;4.53;4.18;;;;;;;35.30;9.73;99224.89;512382;1104;114999;-60
2021/04/28 08:07:48;;;;;;;4.35;3.95;;;;;;;33.32;9.45;99224.94;512031;1096;116161;-61
2021/04/28 08:17:52;;;;;;;5.27;4.17;;;;;;;23.69;11.79;99223.69;525234;1101;115631;-59
2021/04/28 08:27:56;;;;;;;5.95;4.55;;;;;;;18.18;15.25;99222.23;513844;1101;116479;-59
2021/04/28 08:38:02;;;;;;;5.43;4.33;;;;;;;15.89;17.89;99215.88;513166;1101;115090;-58
2021/04/28 08:48:07;;;;;;;8.00;5.37;;;;;;;14.93;18.96;99241.17;503582;1101;10001819;-58
2021/04/28 08:58:13;;;;;;;5.77;4.60;;;;;;;14.66;20.68;99214.38;512416;1104;115479;-57
2021/04/28 09:08:19;;;;;;;5.03;4.50;;;;;;;14.26;20.66;99202.82;513501;1101;115070;-59
2021/04/28 09:18:36;;;;;;;6.23;5.20;;;;;;;14.49;21.08;99186.80;513560;1101;115521;-59
2021/04/28 09:28:50;;;;;;;6.13;4.93;;;;;;;14.29;21.38;99175.30;513393;1096;115542;-59
2021/04/28 09:38:56;;;;;;;6.20;5.60;;;;;;;14.67;21.52;99163.20;511897;1096;115953;-58
2021/04/28 09:49:06;;;;;;;6.03;4.73;;;;;;;14.34;21.57;99159.05;513657;1096;115788;-59
2021/04/28 09:59:11;;;;;;;8.77;4.83;;;;;;;14.26;21.93;99138.59;513246;1096;115386;-59
2021/04/28 10:09:34;;;;;;;5.17;4.63;;;;;;;14.08;22.10;99127.83;511799;1096;114579;-59
2021/04/28 10:19:40;;;;;;;6.90;5.33;;;;;;;13.78;22.77;99122.41;512610;1096;115275;-58
2021/04/28 10:29:46;;;;;;;8.45;4.85;;;;;;;13.52;23.69;99117.55;521028;1104;115262;-58
2021/04/28 10:39:51;;;;;;;7.20;4.87;;;;;;;13.59;23.93;99104.67;513357;1101;115491;-57
2021/04/28 10:50:13;;;;;;;7.23;5.83;;;;;;;13.58;24.21;99103.82;518547;1101;115566;-57
2021/04/28 11:00:27;;;;;;;9.97;5.03;;;;;;;13.59;24.18;99091.48;522221;1101;114955;-58
2021/04/28 11:10:35;;;;;;;7.20;5.23;;;;;;;13.61;24.31;99068.44;515379;1096;115037;-57
2021/04/28 11:20:39;;;;;;;7.80;4.80;;;;;;;13.57;24.09;99064.41;525403;1096;121654;-56
2021/04/28 11:30:52;;;;;;;7.20;4.40;;;;;;;13.79;24.13;99050.20;512709;1101;115333;-57
2021/04/28 11:41:01;;;;;;;7.07;4.50;;;;;;;13.92;24.00;99043.85;513359;1097;116418;-58
2021/04/28 11:51:10;;;;;;;6.43;5.13;;;;;;;13.77;24.16;99038.09;513148;1101;115878;-60
2021/04/28 12:01:15;;;;;;;22.85;6.98;;;;;;;13.94;24.67;99020.80;513734;1101;115712;-60
2021/04/28 12:11:21;;;;;;;5.30;4.60;;;;;;;13.90;24.03;99014.95;513931;1096;116236;-58
2021/04/28 12:21:29;;;;;;;7.07;5.00;;;;;;;13.84;24.64;99011.04;512544;1104;115130;-59
2021/04/28 12:31:48;;;;;;;6.00;4.50;;;;;;;13.89;24.31;98992.17;513156;1096;115513;-60
2021/04/28 12:41:53;;;;;;;5.10;4.13;;;;;;;13.89;24.20;98999.27;512667;1103;115204;-56
2021/04/28 12:52:00;;;;;;;5.77;4.77;;;;;;;13.92;24.18;98994.56;513033;1104;115519;-58
2021/04/28 13:02:06;;;;;;;6.05;3.90;;;;;;;13.72;24.40;98975.17;512831;1096;115318;-59
2021/04/28 13:12:34;;;;;;;7.83;4.00;;;;;;;13.70;24.51;98967.41;512369;1101;116278;-58
2021/04/28 13:22:44;;;;;;;5.30;4.60;;;;;;;13.80;24.61;98967.43;521696;1101;115783;-58
2021/04/28 13:32:54;;;;;;;5.13;4.03;;;;;;;13.91;24.72;98947.18;520176;1101;115664;-57
2021/04/28 13:43:01;;;;;;;4.85;3.95;;;;;;;13.99;24.68;98929.69;513633;1101;115785;-52
2021/04/28 13:53:06;;;;;;;5.50;3.70;;;;;;;14.27;24.74;98923.73;513556;1101;115831;-59
2021/04/28 14:46:01;;;;;;;5.00;3.67;;;;;;;14.13;24.08;98902.06;516727;1089;114779;-60
2021/04/28 14:56:07;;;;;;;5.13;4.07;;;;;;;14.19;24.59;98895.39;510826;1102;116348;-62
2021/04/28 15:06:14;;;;;;;4.88;3.33;;;;;;;14.18;24.25;98885.80;510567;1107;115761;-59
2021/04/28 15:16:18;;;;;;;4.40;4.00;;;;;;;14.16;24.50;98866.64;510084;1106;116668;-61
2021/04/28 15:26:23;;;;;;;4.17;3.63;;;;;;;14.16;24.64;98858.72;510718;1103;115710;-56
2021/04/28 15:36:28;;;;;;;7.23;3.70;;;;;;;14.12;24.26;98847.59;510591;1107;115642;-56
2021/04/28 15:46:33;;;;;;;4.00;3.25;;;;;;;14.05;24.22;98846.48;510750;1108;116395;-57
2021/04/28 15:56:38;;;;;;;7.93;3.77;;;;;;;13.99;24.47;98828.58;510871;1103;115781;-55
2021/04/28 16:06:42;;;;;;;4.07;3.23;;;;;;;15.46;23.95;98829.13;510276;1103;114650;-56
2021/04/28 16:16:47;;;;;;;7.83;4.00;;;;;;;14.70;24.15;98829.98;510964;1107;115792;-56
2021/04/28 16:26:51;;;;;;;6.00;3.53;;;;;;;14.23;24.62;98816.75;510449;1107;116149;-55
2021/04/28 16:36:56;;;;;;;3.80;3.40;;;;;;;13.98;24.80;98805.80;510209;1107;116710;-61
2021/04/28 16:47:01;;;;;;;6.45;2.60;;;;;;;13.75;24.95;98806.08;510600;1107;115828;-61
2021/04/28 16:57:07;;;;;;;4.53;3.57;;;;;;;13.57;25.13;98804.09;510496;1107;115528;-59
2021/04/28 17:07:12;;;;;;;26.87;4.63;;;;;;;14.00;25.10;98796.74;509965;1107;116185;-59
2021/04/28 17:17:16;;;;;;;4.77;3.83;;;;;;;13.55;25.04;98794.65;493283;1107;20001847;-65
2021/04/28 17:27:21;;;;;;;10.97;5.70;;;;;;;13.03;25.65;98803.54;510719;1107;116422;-59
2021/04/28 17:37:29;;;;;;;8.35;4.75;;;;;;;12.55;26.41;98804.98;509631;1107;116077;-61
2021/04/28 17:47:33;;;;;;;13.77;11.63;;;;;;;12.05;26.90;98796.77;510488;1103;116413;-63
2021/04/28 17:57:38;;;;;;;12.35;7.20;;;;;;;11.64;27.58;98806.25;510119;1107;116368;-60
2021/04/28 18:07:43;;;;;;;11.93;6.20;;;;;;;11.36;27.61;98816.34;510276;1102;117233;-57
2021/04/28 18:17:48;;;;;;;8.35;5.35;;;;;;;10.98;28.08;98821.08;510615;1103;115499;-65
2021/04/28 18:27:52;;;;;;;9.53;4.80;;;;;;;10.64;28.25;98816.63;509956;1107;115570;-62
2021/04/28 18:37:59;;;;;;;10.47;5.43;;;;;;;10.45;28.69;98826.88;510676;1103;115590;-60
2021/04/28 18:48:05;;;;;;;17.00;7.03;;;;;;;10.24;29.30;98830.95;510846;1102;115928;-61
2021/04/28 18:58:10;;;;;;;10.30;7.35;;;;;;;10.03;29.61;98829.93;510322;1107;115646;-60
2021/04/28 19:08:15;;;;;;;10.10;6.70;;;;;;;9.77;29.88;98832.69;510966;1108;118514;-59
2021/04/28 19:18:20;;;;;;;9.77;6.93;;;;;;;9.63;30.07;98829.30;510939;1100;115519;-60
2021/04/28 19:28:26;;;;;;;14.47;7.70;;;;;;;9.55;29.98;98831.63;509917;1107;116135;-61
2021/04/28 19:38:34;;;;;;;14.20;10.50;;;;;;;9.36;30.44;98826.87;510799;1107;116498;-59
2021/04/28 19:48:39;;;;;;;13.57;8.13;;;;;;;9.14;30.81;98831.00;509627;1102;115550;-61
2021/04/28 19:58:44;;;;;;;15.40;7.63;;;;;;;8.97;30.98;98821.71;510395;1101;115779;-59
2021/04/28 20:08:50;;;;;;;11.83;8.80;;;;;;;8.85;31.08;98820.80;510631;1107;115595;-60
2021/04/28 20:18:55;;;;;;;16.75;8.95;;;;;;;8.76;31.26;98824.05;510110;1107;116046;-60
2021/04/28 20:29:04;;;;;;;15.07;7.90;;;;;;;8.67;31.59;98818.50;510688;1107;116443;-61
2021/04/28 20:39:09;;;;;;;10.47;7.00;;;;;;;8.64;31.90;98817.86;510904;1102;115859;-59
2021/04/28 20:49:16;;;;;;;9.90;6.33;;;;;;;8.51;32.31;98817.88;509630;1107;115999;-60
2021/04/28 20:59:20;;;;;;;11.08;7.33;;;;;;;8.40;33.16;98808.09;510453;1108;116201;-62
2021/04/28 21:09:27;;;;;;;11.00;7.70;;;;;;;8.25;33.53;98808.20;510731;1108;115222;-62
2021/04/28 21:19:35;;;;;;;14.50;7.80;;;;;;;8.11;34.28;98806.49;510569;1107;115816;-63
2021/04/28 21:29:40;;;;;;;10.00;7.03;;;;;;;8.02;34.89;98801.87;511083;1103;115494;-62
2021/04/28 21:39:46;;;;;;;10.27;6.80;;;;;;;7.84;35.58;98798.69;510063;1107;115328;-62
2021/04/28 21:49:50;;;;;;;11.40;8.17;;;;;;;7.73;36.19;98795.94;510746;1107;117648;-62
2021/04/28 21:59:55;;;;;;;10.43;6.63;;;;;;;7.59;36.37;98795.06;510410;1103;115751;-62
2021/04/28 22:10:00;;;;;;;8.35;6.80;;;;;;;7.53;37.17;98785.03;509660;1101;115796;-62
2021/04/28 22:20:07;;;;;;;12.65;7.10;;;;;;;7.42;37.54;98789.16;510668;1107;114935;-63
2021/04/28 22:30:14;;;;;;;8.45;7.05;;;;;;;7.29;37.99;98786.48;501323;1108;10001288;-60
2021/04/28 22:40:20;;;;;;;13.60;8.10;;;;;;;7.23;39.04;98776.45;510890;1107;116117;-63
2021/04/28 22:50:24;;;;;;;10.80;7.55;;;;;;;7.10;39.11;98772.91;511507;1102;115672;-62
2021/04/28 23:00:29;;;;;;;10.90;7.77;;;;;;;7.03;39.79;98762.02;511723;1103;114912;-63
2021/04/28 23:10:38;;;;;;;11.13;8.13;;;;;;;6.94;40.47;98760.83;511005;1102;115023;-63
2021/04/28 23:20:42;;;;;;;12.10;7.07;;;;;;;6.78;40.84;98755.72;511167;1107;115637;-67
2021/04/28 23:30:47;;;;;;;10.20;7.17;;;;;;;6.69;40.55;98741.48;509812;1108;119065;-61
2021/04/28 23:40:52;;;;;;;9.80;7.10;;;;;;;6.59;41.05;98732.53;510426;1103;115867;-64
2021/04/28 23:50:57;;;;;;;10.65;7.35;;;;;;;6.55;41.36;98718.02;511398;1107;115221;-62
